createdAt,value
2022-12-19T00:00:38.391Z,9.90
2022-12-19T00:03:40.595Z,9.05
2022-12-19T00:06:43.897Z,8.57
2022-12-19T00:09:46.441Z,9.80
2022-12-19T00:12:48.630Z,9.20
2022-12-19T00:15:52.358Z,10.85
2022-12-19T00:18:58.873Z,9.88
2022-12-19T00:22:01.179Z,9.48
2022-12-19T00:25:03.479Z,9.45
2022-12-19T00:28:06.695Z,7.88
2022-12-19T00:31:09.348Z,9.48
2022-12-19T00:34:13.208Z,10.50
2022-12-19T00:37:15.447Z,8.02
2022-12-19T00:40:19.628Z,9.20
2022-12-19T00:43:21.792Z,8.65
2022-12-19T00:46:26.532Z,7.43
2022-12-19T00:49:28.699Z,8.23
2022-12-19T00:52:31.416Z,9.38
2022-12-19T00:55:38.530Z,7.95
2022-12-19T00:58:46.866Z,8.55
2022-12-19T01:01:49.830Z,8.07
2022-12-19T01:04:53.462Z,9.25
2022-12-19T01:07:56.009Z,9.25
2022-12-19T01:10:59.013Z,9.05
2022-12-19T01:14:01.113Z,9.32
2022-12-19T01:17:03.270Z,7.80
2022-12-19T01:20:06.137Z,9.05
2022-12-19T01:23:11.520Z,7.65
2022-12-19T01:26:14.252Z,8.75
2022-12-19T01:29:17.027Z,8.20
2022-12-19T01:32:19.288Z,9.30
2022-12-19T01:35:22.343Z,10.23
2022-12-19T01:38:26.292Z,9.07
2022-12-19T01:41:28.769Z,7.80
2022-12-19T01:44:31.835Z,9.27
2022-12-19T01:47:57.157Z,9.52
2022-12-19T01:51:05.639Z,9.80
2022-12-19T01:54:12.223Z,8.65
2022-12-19T01:57:18.430Z,8.68
2022-12-19T02:00:20.926Z,8.82
2022-12-19T02:03:29.337Z,8.38
2022-12-19T02:06:35.153Z,10.25
2022-12-19T02:09:37.593Z,10.23
2022-12-19T02:12:44.592Z,8.35
2022-12-19T02:16:30.125Z,9.93
2022-12-19T02:20:07.034Z,9.93
2022-12-19T02:23:28.824Z,9.05
2022-12-19T02:27:25.452Z,8.70
2022-12-19T02:30:49.795Z,8.48
2022-12-19T02:34:15.021Z,8.77
2022-12-19T02:37:53.990Z,11.40
2022-12-19T02:41:03.900Z,10.70
2022-12-19T02:44:07.057Z,10.57
2022-12-19T02:47:10.606Z,9.68
2022-12-19T02:50:13.931Z,11.63
2022-12-19T02:53:17.120Z,9.68
2022-12-19T02:56:36.834Z,11.25
2022-12-19T03:00:04.135Z,10.07
2022-12-19T03:03:38.452Z,10.07
2022-12-19T03:07:09.198Z,11.18
2022-12-19T03:10:24.153Z,10.93
2022-12-19T03:13:46.493Z,10.88
2022-12-19T03:16:49.051Z,10.25
2022-12-19T03:19:51.215Z,9.63
2022-12-19T03:22:53.886Z,11.10
2022-12-19T03:26:01.852Z,10.90
2022-12-19T03:29:09.140Z,12.82
2022-12-19T03:32:14.591Z,10.68
2022-12-19T03:35:24.782Z,9.93
2022-12-19T03:38:28.947Z,9.27
2022-12-19T03:41:50.442Z,10.30
2022-12-19T03:44:55.807Z,9.57
2022-12-19T03:48:04.419Z,11.68
2022-12-19T03:51:37.260Z,10.90
2022-12-19T03:54:47.567Z,9.30
2022-12-19T03:57:57.291Z,9.10
2022-12-19T04:01:01.165Z,9.90
2022-12-19T04:04:06.222Z,10.27
2022-12-19T04:07:09.161Z,9.82
2022-12-19T04:10:15.564Z,10.77
2022-12-19T04:13:22.995Z,11.48
2022-12-19T04:16:48.436Z,9.68
2022-12-19T04:20:12.507Z,10.18
2022-12-19T04:23:21.366Z,10.45
2022-12-19T04:26:24.951Z,11.90
2022-12-19T04:29:29.281Z,10.90
2022-12-19T04:32:35.391Z,9.80
2022-12-19T04:35:38.297Z,11.40
2022-12-19T04:38:42.874Z,11.60
2022-12-19T04:41:44.938Z,10.73
2022-12-19T04:44:47.487Z,10.52
2022-12-19T04:47:49.623Z,11.55
2022-12-19T04:50:52.096Z,10.43
2022-12-19T04:53:54.269Z,10.85
2022-12-19T04:56:57.150Z,11.15
2022-12-19T04:59:59.220Z,10.10
2022-12-19T05:03:01.559Z,10.48
2022-12-19T05:06:12.490Z,10.77
2022-12-19T05:09:17.993Z,10.40
2022-12-19T05:12:20.617Z,11.18
2022-12-19T05:15:22.752Z,10.40
2022-12-19T05:18:25.490Z,10.50
2022-12-19T05:21:27.718Z,12.05
2022-12-19T05:24:29.942Z,10.02
2022-12-19T05:27:32.376Z,12.07
2022-12-19T05:30:35.162Z,13.65
2022-12-19T05:33:38.378Z,11.95
2022-12-19T05:36:41.044Z,12.63
2022-12-19T05:39:43.209Z,12.05
2022-12-19T05:42:45.167Z,12.10
2022-12-19T05:45:47.341Z,12.77
2022-12-19T05:48:49.826Z,12.43
2022-12-19T05:51:52.051Z,11.93
2022-12-19T05:54:54.068Z,12.40
2022-12-19T05:57:58.499Z,12.05
2022-12-19T06:01:28.059Z,11.65
2022-12-19T06:04:30.719Z,11.27
2022-12-19T06:07:32.845Z,11.65
2022-12-19T06:10:34.866Z,11.63
2022-12-19T06:13:37.471Z,12.98
2022-12-19T06:16:39.574Z,13.45
2022-12-19T06:19:41.871Z,10.25
2022-12-19T06:22:44.370Z,11.68
2022-12-19T06:25:47.264Z,7.18
2022-12-19T06:28:50.987Z,7.45
2022-12-19T06:31:53.102Z,7.70
2022-12-19T06:35:04.138Z,6.82
2022-12-19T06:38:09.087Z,7.43
2022-12-19T06:41:32.387Z,8.50
2022-12-19T06:44:35.084Z,11.10
2022-12-19T06:47:37.167Z,13.45
2022-12-19T06:50:39.341Z,13.68
2022-12-19T06:54:06.841Z,14.20
2022-12-19T06:57:13.711Z,12.48
2022-12-19T07:00:18.135Z,13.38
2022-12-19T07:03:24.518Z,12.93
2022-12-19T07:06:26.834Z,12.77
2022-12-19T07:09:30.818Z,16.25
2022-12-19T07:12:33.107Z,15.18
2022-12-19T07:15:37.013Z,15.77
2022-12-19T07:18:41.280Z,13.20
2022-12-19T07:21:43.877Z,13.90
2022-12-19T07:24:46.345Z,12.48
2022-12-19T07:27:50.295Z,14.25
2022-12-19T07:30:52.587Z,15.43
2022-12-19T07:33:55.297Z,14.55
2022-12-19T07:36:57.503Z,12.43
2022-12-19T07:39:59.739Z,13.50
2022-12-19T07:43:03.716Z,14.80
2022-12-19T07:46:09.096Z,14.68
2022-12-19T07:49:11.289Z,15.23
2022-12-19T07:52:13.530Z,16.15
2022-12-19T07:55:15.760Z,14.90
2022-12-19T07:58:18.511Z,14.60
2022-12-19T08:01:20.791Z,14.90
2022-12-19T08:04:23.048Z,14.98
2022-12-19T08:07:25.175Z,14.60
2022-12-19T08:10:27.223Z,12.02
2022-12-19T08:13:35.513Z,13.70
2022-12-19T08:17:11.103Z,13.00
2022-12-19T08:20:02.120Z,13.90
2022-12-19T08:23:04.753Z,12.73
2022-12-19T08:26:10.940Z,12.30
2022-12-19T08:29:13.366Z,14.57
2022-12-19T08:32:20.774Z,13.15
2022-12-19T08:35:23.487Z,13.75
2022-12-19T08:38:25.500Z,13.90
2022-12-19T08:41:27.518Z,12.70
2022-12-19T08:44:30.905Z,11.52
2022-12-19T08:47:32.914Z,12.70
2022-12-19T08:50:36.438Z,12.70
2022-12-19T08:53:42.499Z,13.10
2022-12-19T08:56:46.745Z,12.15
2022-12-19T08:59:49.333Z,12.88
2022-12-19T09:02:52.893Z,14.15
2022-12-19T09:06:07.889Z,12.60
2022-12-19T09:09:11.240Z,13.90
2022-12-19T09:12:15.148Z,14.13
2022-12-19T09:15:17.332Z,14.57
2022-12-19T09:18:19.631Z,15.25
2022-12-19T09:21:29.453Z,17.67
2022-12-19T09:24:31.716Z,15.90
2022-12-19T09:27:47.696Z,15.40
2022-12-19T09:31:02.744Z,14.27
2022-12-19T09:34:06.563Z,13.45
2022-12-19T09:37:16.392Z,11.10
2022-12-19T09:40:21.131Z,14.52
2022-12-19T09:44:01.998Z,13.60
2022-12-19T09:47:20.012Z,14.63
2022-12-19T09:50:43.620Z,14.13
2022-12-19T09:53:56.859Z,14.23
2022-12-19T09:57:04.366Z,13.35
2022-12-19T10:00:29.076Z,12.45
2022-12-19T10:04:13.349Z,12.60
2022-12-19T10:07:53.002Z,13.85
2022-12-19T10:12:39.408Z,12.57
2022-12-19T10:14:44.021Z,11.57
2022-12-19T10:18:17.523Z,13.75
2022-12-19T10:21:50.654Z,9.60
2022-12-19T10:25:09.010Z,14.57
2022-12-19T10:28:11.756Z,11.77
2022-12-19T10:31:28.058Z,13.35
2022-12-19T10:34:41.224Z,13.90
2022-12-19T10:37:51.130Z,14.02
2022-12-19T10:41:09.367Z,13.65
2022-12-19T10:44:13.484Z,15.03
2022-12-19T10:47:26.483Z,13.23
2022-12-19T10:50:31.004Z,13.32
2022-12-19T10:53:33.425Z,15.20
2022-12-19T10:56:39.228Z,15.02
2022-12-19T10:59:59.329Z,15.35
2022-12-19T11:03:13.439Z,15.93
2022-12-19T11:06:35.916Z,13.48
2022-12-19T11:18:09.859Z,14.43
2022-12-19T11:23:38.009Z,14.93
2022-12-19T11:29:17.532Z,15.02
2022-12-19T11:30:09.730Z,16.08
2022-12-19T11:30:38.266Z,17.13
2022-12-19T11:34:04.361Z,14.95
2022-12-19T11:37:12.238Z,15.38
2022-12-19T11:40:35.772Z,16.92
2022-12-19T11:43:48.012Z,15.88
2022-12-19T11:46:57.449Z,16.73
2022-12-19T11:50:11.247Z,14.95
2022-12-19T11:53:19.391Z,15.75
2022-12-19T11:56:24.851Z,14.43
2022-12-19T11:59:29.659Z,14.18
2022-12-19T12:02:59.778Z,14.82
2022-12-19T12:06:13.629Z,15.82
2022-12-19T12:14:49.817Z,16.63
2022-12-19T12:24:15.841Z,15.82
2022-12-19T12:29:44.451Z,14.75
2022-12-19T12:31:08.292Z,17.25
2022-12-19T12:31:26.818Z,14.10
2022-12-19T12:31:52.924Z,15.68
2022-12-19T12:35:56.635Z,13.45
2022-12-19T12:39:29.847Z,14.82
2022-12-19T12:43:01.810Z,13.77
2022-12-19T12:46:23.464Z,14.80
2022-12-19T12:49:43.510Z,14.07
2022-12-19T12:52:53.895Z,12.63
2022-12-19T12:55:59.133Z,15.43
2022-12-19T12:59:02.137Z,15.90
2022-12-19T13:02:17.061Z,15.50
2022-12-19T13:05:41.063Z,13.70
2022-12-19T13:08:48.579Z,14.52
2022-12-19T13:12:19.856Z,14.65
2022-12-19T13:15:29.026Z,14.77
2022-12-19T13:18:34.425Z,15.25
2022-12-19T13:22:03.523Z,14.30
2022-12-19T13:25:28.634Z,14.55
2022-12-19T13:28:34.611Z,13.25
2022-12-19T13:31:36.792Z,15.75
2022-12-19T13:34:43.525Z,14.48
2022-12-19T13:39:49.008Z,15.15
2022-12-19T13:41:48.332Z,14.75
2022-12-19T13:44:52.408Z,14.93
2022-12-19T13:47:57.858Z,13.25
2022-12-19T13:51:11.805Z,15.60
2022-12-19T13:54:27.046Z,13.05
2022-12-19T13:57:32.196Z,13.18
2022-12-19T14:00:42.090Z,12.35
2022-12-19T14:03:47.608Z,16.17
2022-12-19T14:06:57.050Z,15.48
2022-12-19T14:11:28.592Z,15.48
2022-12-19T14:13:49.926Z,13.48
2022-12-19T14:17:08.752Z,15.90
2022-12-19T14:22:01.987Z,16.73
2022-12-19T14:23:45.936Z,16.67
2022-12-19T14:28:26.981Z,16.63
2022-12-19T14:30:32.425Z,15.73
2022-12-19T14:34:18.484Z,15.48
2022-12-19T14:39:22.228Z,14.18
2022-12-19T14:41:07.863Z,14.55
2022-12-19T14:52:08.042Z,14.07
2022-12-19T14:52:08.329Z,14.35
2022-12-19T14:54:28.275Z,15.25
2022-12-19T14:58:55.765Z,18.50
2022-12-19T15:01:35.272Z,22.30
2022-12-19T15:04:52.946Z,23.20
2022-12-19T15:07:59.336Z,22.58
2022-12-19T15:11:45.615Z,21.40
2022-12-19T15:14:59.016Z,23.20
2022-12-19T15:18:15.390Z,25.13
2022-12-19T15:21:19.072Z,24.08
2022-12-19T15:24:21.491Z,24.27
2022-12-19T15:27:23.656Z,20.83
2022-12-19T15:30:27.305Z,23.85
2022-12-19T15:33:29.395Z,22.90
2022-12-19T15:36:31.396Z,21.20
2022-12-19T15:39:33.988Z,22.25
2022-12-19T15:42:37.547Z,21.40
2022-12-19T15:45:40.972Z,22.75
2022-12-19T15:48:46.552Z,25.70
2022-12-19T15:51:50.637Z,22.33
2022-12-19T15:54:52.863Z,24.13
2022-12-19T15:58:01.723Z,25.90
2022-12-19T16:01:04.973Z,24.50
2022-12-19T16:04:13.640Z,25.42
2022-12-19T16:07:18.172Z,25.48
2022-12-19T16:10:20.247Z,27.00
2022-12-19T16:13:27.298Z,27.63
2022-12-19T16:16:30.044Z,24.45
2022-12-19T16:19:34.063Z,22.27
2022-12-19T16:22:38.366Z,20.48
2022-12-19T16:25:49.737Z,19.95
2022-12-19T16:28:52.427Z,20.65
2022-12-19T16:31:55.592Z,24.10
2022-12-19T16:34:57.816Z,25.98
2022-12-19T16:38:00.829Z,26.65
2022-12-19T16:41:03.056Z,26.10
2022-12-19T16:44:15.654Z,27.00
2022-12-19T16:47:20.969Z,27.85
2022-12-19T16:50:25.536Z,26.85
2022-12-19T16:53:28.011Z,29.40
2022-12-19T16:56:40.776Z,30.52
2022-12-19T16:59:42.871Z,35.58
2022-12-19T17:02:45.113Z,32.17
2022-12-19T17:05:48.601Z,32.95
2022-12-19T17:08:51.782Z,33.58
2022-12-19T17:11:58.415Z,30.33
2022-12-19T17:15:08.682Z,33.60
2022-12-19T17:18:18.536Z,31.80
2022-12-19T17:21:22.726Z,34.15
2022-12-19T17:24:25.305Z,34.45
2022-12-19T17:27:27.707Z,38.00
2022-12-19T17:30:29.823Z,34.47
2022-12-19T17:33:38.553Z,32.78
2022-12-19T17:36:40.707Z,34.83
2022-12-19T17:39:43.098Z,33.22
2022-12-19T17:42:45.266Z,34.17
2022-12-19T17:45:47.487Z,33.55
2022-12-19T17:48:51.810Z,35.38
2022-12-19T17:51:54.843Z,36.80
2022-12-19T17:54:56.945Z,36.45
2022-12-19T17:58:00.666Z,34.55
2022-12-19T18:01:02.781Z,35.15
2022-12-19T18:04:05.106Z,38.55
2022-12-19T18:07:15.771Z,46.33
2022-12-19T18:10:23.893Z,59.13
2022-12-19T18:13:29.286Z,56.45
2022-12-19T18:16:31.417Z,23.75
2022-12-19T18:19:34.792Z,20.48
2022-12-19T18:22:41.162Z,20.85
2022-12-19T18:25:45.645Z,37.55
2022-12-19T18:28:48.111Z,40.45
2022-12-19T18:31:51.458Z,38.70
2022-12-19T18:34:54.944Z,41.08
2022-12-19T18:38:00.208Z,41.25
2022-12-19T18:41:02.336Z,42.20
2022-12-19T18:44:07.041Z,46.85
2022-12-19T18:47:20.316Z,43.30
2022-12-19T18:50:24.327Z,48.13
2022-12-19T18:53:35.699Z,43.97
2022-12-19T18:56:40.774Z,48.65
2022-12-19T18:59:42.900Z,45.88
2022-12-19T19:02:50.458Z,48.40
2022-12-19T19:05:52.601Z,51.43
2022-12-19T19:08:57.103Z,52.63
2022-12-19T19:12:17.852Z,48.83
2022-12-19T19:15:28.792Z,52.90
2022-12-19T19:18:37.799Z,50.65
2022-12-19T19:21:40.041Z,45.42
2022-12-19T19:24:52.319Z,46.53
2022-12-19T19:28:00.280Z,44.67
2022-12-19T19:31:02.779Z,41.78
2022-12-19T19:34:29.025Z,41.70
2022-12-19T19:37:31.336Z,38.63
2022-12-19T19:40:35.809Z,36.58
2022-12-19T19:43:38.092Z,38.95
2022-12-19T19:46:40.375Z,41.35
2022-12-19T19:49:42.526Z,40.85
2022-12-19T19:52:44.781Z,39.03
2022-12-19T19:56:00.917Z,43.97
2022-12-19T19:59:04.244Z,22.60
2022-12-19T20:02:08.705Z,22.20
2022-12-19T20:05:11.677Z,20.45
2022-12-19T20:08:14.172Z,20.80
2022-12-19T20:11:16.603Z,24.40
2022-12-19T20:14:19.619Z,25.10
2022-12-19T20:17:23.342Z,20.92
2022-12-19T20:20:25.682Z,21.70
2022-12-19T20:23:29.282Z,24.42
2022-12-19T20:26:32.788Z,48.72
2022-12-19T20:29:34.938Z,47.25
2022-12-19T20:32:37.224Z,46.90
2022-12-19T20:35:39.338Z,46.75
2022-12-19T20:38:41.663Z,45.92
2022-12-19T20:41:43.790Z,48.97
2022-12-19T20:44:45.915Z,49.22
2022-12-19T20:47:48.180Z,52.50
2022-12-19T20:50:56.042Z,47.88
2022-12-19T20:53:58.119Z,48.95
2022-12-19T20:57:00.733Z,53.13
2022-12-19T21:00:04.620Z,50.75
2022-12-19T21:06:29.356Z,52.42
2022-12-19T21:09:32.834Z,50.65
2022-12-19T21:12:35.999Z,48.47
2022-12-19T21:15:38.298Z,49.17
2022-12-19T21:18:42.289Z,48.08
2022-12-19T21:21:45.821Z,47.63
2022-12-19T21:24:47.940Z,48.55
2022-12-19T21:27:49.937Z,42.95
2022-12-19T21:31:04.519Z,45.17
2022-12-19T21:34:07.052Z,47.58
2022-12-19T21:37:09.320Z,42.13
2022-12-19T21:40:14.167Z,44.45
2022-12-19T21:43:16.530Z,46.05
2022-12-19T21:46:22.195Z,45.90
2022-12-19T21:49:24.308Z,47.22
2022-12-19T21:52:26.384Z,47.85
2022-12-19T21:55:28.468Z,45.58
2022-12-19T21:58:31.083Z,47.45
2022-12-19T22:01:34.312Z,46.80
2022-12-19T22:04:36.450Z,46.53
2022-12-19T22:07:38.556Z,46.10
2022-12-19T22:10:40.847Z,48.53
2022-12-19T22:13:43.380Z,50.08
2022-12-19T22:16:45.622Z,49.15
2022-12-19T22:19:47.975Z,47.38
2022-12-19T22:22:50.112Z,49.42
2022-12-19T22:26:20.347Z,48.90
2022-12-19T22:29:23.185Z,48.20
2022-12-19T22:32:27.475Z,48.30
2022-12-19T22:35:29.675Z,48.25
2022-12-19T22:38:32.133Z,45.13
2022-12-19T22:41:35.602Z,46.83
2022-12-19T22:44:38.043Z,46.83
2022-12-19T22:47:43.330Z,44.83
2022-12-19T22:50:47.235Z,43.55
2022-12-19T22:53:49.324Z,46.67
2022-12-19T22:56:52.315Z,45.58
2022-12-19T22:59:54.502Z,44.25
2022-12-19T23:02:57.382Z,42.78
2022-12-19T23:06:01.529Z,43.13
2022-12-19T23:09:05.957Z,40.25
2022-12-19T23:12:09.170Z,41.30
2022-12-19T23:15:13.067Z,41.20
2022-12-19T23:18:15.698Z,39.33
2022-12-19T23:21:22.241Z,39.00
2022-12-19T23:24:24.520Z,37.22
2022-12-19T23:27:28.404Z,36.80
2022-12-19T23:30:30.613Z,36.95
2022-12-19T23:33:36.124Z,36.17
2022-12-19T23:37:09.691Z,35.95
2022-12-19T23:40:02.320Z,34.90
2022-12-19T23:43:04.415Z,36.47
2022-12-19T23:46:26.430Z,34.55
2022-12-19T23:49:28.717Z,35.28
2022-12-19T23:52:30.797Z,34.70
2022-12-19T23:55:33.079Z,33.17
2022-12-19T23:58:35.917Z,33.88
